sensor_id;sensor_type;location;lat;lon;timestamp;P1;durP1;ratioP1;P2;durP2;ratioP2
10041;SDS011;5061;49.068;12.058;2023-07-13T00:00:07;2.53;;;2.30;;
10041;SDS011;5061;49.068;12.058;2023-07-13T00:03:31;2.20;;;2.00;;
10041;SDS011;5061;49.068;12.058;2023-07-13T00:06:55;2.30;;;2.10;;
10041;SDS011;5061;49.068;12.058;2023-07-13T00:10:15;4.73;;;2.50;;
10041;SDS011;5061;49.068;12.058;2023-07-13T00:13:37;3.80;;;2.33;;
10041;SDS011;5061;49.068;12.058;2023-07-13T00:16:59;3.80;;;2.37;;
10041;SDS011;5061;49.068;12.058;2023-07-13T00:20:21;2.70;;;2.13;;
10041;SDS011;5061;49.068;12.058;2023-07-13T00:23:42;4.87;;;2.30;;
10041;SDS011;5061;49.068;12.058;2023-07-13T00:27:03;2.23;;;2.03;;
10041;SDS011;5061;49.068;12.058;2023-07-13T00:30:24;2.93;;;2.63;;
10041;SDS011;5061;49.068;12.058;2023-07-13T00:33:45;1.90;;;1.70;;
10041;SDS011;5061;49.068;12.058;2023-07-13T00:37:06;10.73;;;2.43;;
10041;SDS011;5061;49.068;12.058;2023-07-13T00:40:27;2.67;;;2.47;;
10041;SDS011;5061;49.068;12.058;2023-07-13T00:43:48;2.53;;;2.33;;
10041;SDS011;5061;49.068;12.058;2023-07-13T00:47:08;2.13;;;1.90;;
10041;SDS011;5061;49.068;12.058;2023-07-13T00:50:29;2.40;;;2.20;;
10041;SDS011;5061;49.068;12.058;2023-07-13T00:53:50;2.70;;;2.23;;
10041;SDS011;5061;49.068;12.058;2023-07-13T00:57:14;5.60;;;2.67;;
10041;SDS011;5061;49.068;12.058;2023-07-13T01:00:38;2.00;;;1.80;;
10041;SDS011;5061;49.068;12.058;2023-07-13T01:03:59;2.10;;;1.90;;
10041;SDS011;5061;49.068;12.058;2023-07-13T01:07:20;2.73;;;2.47;;
10041;SDS011;5061;49.068;12.058;2023-07-13T01:10:41;2.20;;;1.77;;
10041;SDS011;5061;49.068;12.058;2023-07-13T01:14:10;1.53;;;1.43;;
10041;SDS011;5061;49.068;12.058;2023-07-13T01:17:31;2.73;;;1.80;;
10041;SDS011;5061;49.068;12.058;2023-07-13T01:24:18;2.47;;;1.90;;
10041;SDS011;5061;49.068;12.058;2023-07-13T01:27:39;2.60;;;1.70;;
10041;SDS011;5061;49.068;12.058;2023-07-13T01:31:01;2.20;;;1.63;;
10041;SDS011;5061;49.068;12.058;2023-07-13T01:34:21;2.93;;;1.87;;
10041;SDS011;5061;49.068;12.058;2023-07-13T01:37:42;1.97;;;1.77;;
10041;SDS011;5061;49.068;12.058;2023-07-13T01:41:04;1.97;;;1.73;;
10041;SDS011;5061;49.068;12.058;2023-07-13T01:44:25;2.30;;;2.10;;
10041;SDS011;5061;49.068;12.058;2023-07-13T01:47:46;1.90;;;1.70;;
10041;SDS011;5061;49.068;12.058;2023-07-13T01:51:06;1.90;;;1.70;;
10041;SDS011;5061;49.068;12.058;2023-07-13T01:54:27;2.30;;;1.80;;
10041;SDS011;5061;49.068;12.058;2023-07-13T01:57:48;1.70;;;1.50;;
10041;SDS011;5061;49.068;12.058;2023-07-13T02:01:08;1.53;;;1.43;;
10041;SDS011;5061;49.068;12.058;2023-07-13T02:04:29;3.20;;;1.77;;
10041;SDS011;5061;49.068;12.058;2023-07-13T02:07:50;4.17;;;1.67;;
10041;SDS011;5061;49.068;12.058;2023-07-13T02:11:10;2.07;;;1.90;;
10041;SDS011;5061;49.068;12.058;2023-07-13T02:14:31;1.70;;;1.60;;
10041;SDS011;5061;49.068;12.058;2023-07-13T02:17:52;1.67;;;1.57;;
10041;SDS011;5061;49.068;12.058;2023-07-13T02:21:13;2.27;;;1.97;;
10041;SDS011;5061;49.068;12.058;2023-07-13T02:24:33;2.00;;;1.80;;
10041;SDS011;5061;49.068;12.058;2023-07-13T02:27:54;1.57;;;1.47;;
10041;SDS011;5061;49.068;12.058;2023-07-13T02:31:15;1.40;;;1.30;;
10041;SDS011;5061;49.068;12.058;2023-07-13T02:34:36;2.00;;;1.83;;
10041;SDS011;5061;49.068;12.058;2023-07-13T02:37:57;1.87;;;1.73;;
10041;SDS011;5061;49.068;12.058;2023-07-13T02:41:18;2.13;;;1.63;;
10041;SDS011;5061;49.068;12.058;2023-07-13T02:44:38;2.83;;;1.90;;
10041;SDS011;5061;49.068;12.058;2023-07-13T02:47:59;2.10;;;1.90;;
10041;SDS011;5061;49.068;12.058;2023-07-13T02:51:19;1.63;;;1.53;;
10041;SDS011;5061;49.068;12.058;2023-07-13T02:54:40;2.07;;;1.87;;
10041;SDS011;5061;49.068;12.058;2023-07-13T02:58:00;3.30;;;2.17;;
10041;SDS011;5061;49.068;12.058;2023-07-13T03:01:21;1.80;;;1.70;;
10041;SDS011;5061;49.068;12.058;2023-07-13T03:04:42;1.40;;;1.30;;
10041;SDS011;5061;49.068;12.058;2023-07-13T03:08:03;3.87;;;1.60;;
10041;SDS011;5061;49.068;12.058;2023-07-13T03:11:24;1.97;;;1.67;;
10041;SDS011;5061;49.068;12.058;2023-07-13T03:14:44;1.70;;;1.60;;
10041;SDS011;5061;49.068;12.058;2023-07-13T03:18:05;4.17;;;2.10;;
10041;SDS011;5061;49.068;12.058;2023-07-13T03:21:25;1.50;;;1.40;;
10041;SDS011;5061;49.068;12.058;2023-07-13T03:24:46;2.10;;;1.90;;
10041;SDS011;5061;49.068;12.058;2023-07-13T03:28:07;1.97;;;1.77;;
10041;SDS011;5061;49.068;12.058;2023-07-13T03:31:28;2.40;;;1.80;;
10041;SDS011;5061;49.068;12.058;2023-07-13T03:34:52;1.60;;;1.50;;
10041;SDS011;5061;49.068;12.058;2023-07-13T03:38:13;2.07;;;1.63;;
10041;SDS011;5061;49.068;12.058;2023-07-13T03:41:33;2.03;;;1.87;;
10041;SDS011;5061;49.068;12.058;2023-07-13T03:44:54;1.60;;;1.50;;
10041;SDS011;5061;49.068;12.058;2023-07-13T03:48:15;1.90;;;1.63;;
10041;SDS011;5061;49.068;12.058;2023-07-13T03:51:35;3.50;;;1.60;;
10041;SDS011;5061;49.068;12.058;2023-07-13T03:54:56;1.80;;;1.70;;
10041;SDS011;5061;49.068;12.058;2023-07-13T04:01:49;2.20;;;1.90;;
10041;SDS011;5061;49.068;12.058;2023-07-13T04:05:10;2.53;;;1.90;;
10041;SDS011;5061;49.068;12.058;2023-07-13T04:08:31;2.03;;;1.70;;
10041;SDS011;5061;49.068;12.058;2023-07-13T04:11:53;2.10;;;1.90;;
10041;SDS011;5061;49.068;12.058;2023-07-13T04:15:14;2.10;;;1.80;;
10041;SDS011;5061;49.068;12.058;2023-07-13T04:18:34;1.93;;;1.73;;
10041;SDS011;5061;49.068;12.058;2023-07-13T04:21:55;3.03;;;2.20;;
10041;SDS011;5061;49.068;12.058;2023-07-13T04:25:16;2.60;;;1.93;;
10041;SDS011;5061;49.068;12.058;2023-07-13T04:28:36;3.00;;;2.07;;
10041;SDS011;5061;49.068;12.058;2023-07-13T04:31:57;2.87;;;2.07;;
10041;SDS011;5061;49.068;12.058;2023-07-13T04:35:18;2.23;;;1.80;;
10041;SDS011;5061;49.068;12.058;2023-07-13T04:38:43;2.37;;;1.70;;
10041;SDS011;5061;49.068;12.058;2023-07-13T04:42:04;2.23;;;1.90;;
10041;SDS011;5061;49.068;12.058;2023-07-13T04:45:28;1.97;;;1.77;;
10041;SDS011;5061;49.068;12.058;2023-07-13T04:48:49;7.70;;;2.10;;
10041;SDS011;5061;49.068;12.058;2023-07-13T04:52:11;2.07;;;1.80;;
10041;SDS011;5061;49.068;12.058;2023-07-13T04:55:32;7.97;;;2.30;;
10041;SDS011;5061;49.068;12.058;2023-07-13T04:58:52;5.93;;;2.10;;
10041;SDS011;5061;49.068;12.058;2023-07-13T05:02:13;3.13;;;1.83;;
10041;SDS011;5061;49.068;12.058;2023-07-13T05:05:33;3.10;;;2.33;;
10041;SDS011;5061;49.068;12.058;2023-07-13T05:12:24;3.37;;;2.10;;
10041;SDS011;5061;49.068;12.058;2023-07-13T05:15:45;2.10;;;1.90;;
10041;SDS011;5061;49.068;12.058;2023-07-13T05:19:07;4.50;;;2.50;;
10041;SDS011;5061;49.068;12.058;2023-07-13T05:22:28;2.60;;;2.03;;
10041;SDS011;5061;49.068;12.058;2023-07-13T05:25:49;2.30;;;2.10;;
10041;SDS011;5061;49.068;12.058;2023-07-13T05:29:09;3.30;;;2.00;;
10041;SDS011;5061;49.068;12.058;2023-07-13T05:32:30;3.97;;;2.40;;
10041;SDS011;5061;49.068;12.058;2023-07-13T05:35:51;3.50;;;2.57;;
10041;SDS011;5061;49.068;12.058;2023-07-13T05:39:12;3.87;;;1.87;;
10041;SDS011;5061;49.068;12.058;2023-07-13T05:42:32;2.57;;;2.37;;
10041;SDS011;5061;49.068;12.058;2023-07-13T05:45:53;2.43;;;1.80;;
10041;SDS011;5061;49.068;12.058;2023-07-13T05:49:15;2.13;;;1.80;;
10041;SDS011;5061;49.068;12.058;2023-07-13T05:52:36;1.87;;;1.77;;
10041;SDS011;5061;49.068;12.058;2023-07-13T05:55:57;1.73;;;1.63;;
10041;SDS011;5061;49.068;12.058;2023-07-13T05:59:18;2.80;;;2.00;;
10041;SDS011;5061;49.068;12.058;2023-07-13T06:02:38;1.97;;;1.80;;
10041;SDS011;5061;49.068;12.058;2023-07-13T06:05:59;1.60;;;1.50;;
10041;SDS011;5061;49.068;12.058;2023-07-13T06:09:20;6.23;;;1.90;;
10041;SDS011;5061;49.068;12.058;2023-07-13T06:12:40;3.10;;;1.93;;
10041;SDS011;5061;49.068;12.058;2023-07-13T06:16:02;2.47;;;2.13;;
10041;SDS011;5061;49.068;12.058;2023-07-13T06:19:24;2.70;;;1.67;;
10041;SDS011;5061;49.068;12.058;2023-07-13T06:22:44;2.17;;;1.73;;
10041;SDS011;5061;49.068;12.058;2023-07-13T06:26:05;2.30;;;1.73;;
10041;SDS011;5061;49.068;12.058;2023-07-13T06:29:26;1.60;;;1.50;;
10041;SDS011;5061;49.068;12.058;2023-07-13T06:32:47;2.07;;;1.87;;
10041;SDS011;5061;49.068;12.058;2023-07-13T06:36:08;4.20;;;1.53;;
10041;SDS011;5061;49.068;12.058;2023-07-13T06:39:29;2.00;;;1.50;;
10041;SDS011;5061;49.068;12.058;2023-07-13T06:42:50;1.70;;;1.57;;
10041;SDS011;5061;49.068;12.058;2023-07-13T06:46:10;1.40;;;1.30;;
10041;SDS011;5061;49.068;12.058;2023-07-13T06:49:31;3.23;;;1.47;;
10041;SDS011;5061;49.068;12.058;2023-07-13T06:52:51;1.77;;;1.67;;
10041;SDS011;5061;49.068;12.058;2023-07-13T06:56:12;2.60;;;1.63;;
10041;SDS011;5061;49.068;12.058;2023-07-13T06:59:34;5.70;;;1.97;;
10041;SDS011;5061;49.068;12.058;2023-07-13T07:02:54;1.80;;;1.70;;
10041;SDS011;5061;49.068;12.058;2023-07-13T07:06:16;1.73;;;1.50;;
10041;SDS011;5061;49.068;12.058;2023-07-13T07:09:38;1.50;;;1.37;;
10041;SDS011;5061;49.068;12.058;2023-07-13T07:12:59;5.70;;;1.40;;
10041;SDS011;5061;49.068;12.058;2023-07-13T07:16:20;3.40;;;1.70;;
10041;SDS011;5061;49.068;12.058;2023-07-13T07:19:41;1.67;;;1.57;;
10041;SDS011;5061;49.068;12.058;2023-07-13T07:23:02;1.80;;;1.30;;
10041;SDS011;5061;49.068;12.058;2023-07-13T07:26:23;1.83;;;1.70;;
10041;SDS011;5061;49.068;12.058;2023-07-13T07:29:43;1.77;;;1.60;;
10041;SDS011;5061;49.068;12.058;2023-07-13T07:33:04;2.07;;;1.70;;
10041;SDS011;5061;49.068;12.058;2023-07-13T07:36:24;2.37;;;1.57;;
10041;SDS011;5061;49.068;12.058;2023-07-13T07:39:45;3.33;;;1.40;;
10041;SDS011;5061;49.068;12.058;2023-07-13T07:43:09;7.03;;;1.80;;
10041;SDS011;5061;49.068;12.058;2023-07-13T07:46:31;2.40;;;1.67;;
10041;SDS011;5061;49.068;12.058;2023-07-13T07:49:52;4.50;;;1.40;;
10041;SDS011;5061;49.068;12.058;2023-07-13T07:53:13;2.17;;;1.50;;
10041;SDS011;5061;49.068;12.058;2023-07-13T07:56:34;2.20;;;1.50;;
10041;SDS011;5061;49.068;12.058;2023-07-13T07:59:55;1.60;;;1.50;;
10041;SDS011;5061;49.068;12.058;2023-07-13T08:03:15;5.30;;;1.73;;
10041;SDS011;5061;49.068;12.058;2023-07-13T08:06:36;1.67;;;1.50;;
10041;SDS011;5061;49.068;12.058;2023-07-13T08:09:57;1.97;;;1.40;;
10041;SDS011;5061;49.068;12.058;2023-07-13T08:13:17;4.10;;;2.00;;
10041;SDS011;5061;49.068;12.058;2023-07-13T08:16:38;1.90;;;1.30;;
10041;SDS011;5061;49.068;12.058;2023-07-13T08:19:59;1.70;;;1.33;;
10041;SDS011;5061;49.068;12.058;2023-07-13T08:23:20;2.03;;;1.40;;
10041;SDS011;5061;49.068;12.058;2023-07-13T08:26:40;2.97;;;1.90;;
10041;SDS011;5061;49.068;12.058;2023-07-13T08:30:01;1.63;;;1.53;;
10041;SDS011;5061;49.068;12.058;2023-07-13T08:33:22;4.23;;;1.97;;
10041;SDS011;5061;49.068;12.058;2023-07-13T08:36:44;2.23;;;1.60;;
10041;SDS011;5061;49.068;12.058;2023-07-13T08:40:05;1.60;;;1.50;;
10041;SDS011;5061;49.068;12.058;2023-07-13T08:43:29;2.00;;;1.30;;
10041;SDS011;5061;49.068;12.058;2023-07-13T08:46:54;3.60;;;1.30;;
10041;SDS011;5061;49.068;12.058;2023-07-13T08:50:17;1.90;;;1.40;;
10041;SDS011;5061;49.068;12.058;2023-07-13T08:53:43;1.97;;;1.30;;
10041;SDS011;5061;49.068;12.058;2023-07-13T08:57:20;1.20;;;1.10;;
10041;SDS011;5061;49.068;12.058;2023-07-13T09:00:56;1.50;;;1.23;;
10041;SDS011;5061;49.068;12.058;2023-07-13T09:04:30;3.13;;;1.50;;
10041;SDS011;5061;49.068;12.058;2023-07-13T09:15:14;1.83;;;1.10;;
10041;SDS011;5061;49.068;12.058;2023-07-13T09:18:49;1.83;;;1.33;;
10041;SDS011;5061;49.068;12.058;2023-07-13T09:22:13;1.40;;;1.30;;
10041;SDS011;5061;49.068;12.058;2023-07-13T09:25:39;1.50;;;1.40;;
10041;SDS011;5061;49.068;12.058;2023-07-13T09:29:19;2.00;;;1.10;;
10041;SDS011;5061;49.068;12.058;2023-07-13T09:32:50;3.07;;;2.17;;
10041;SDS011;5061;49.068;12.058;2023-07-13T09:39:44;2.20;;;1.40;;
10041;SDS011;5061;49.068;12.058;2023-07-13T09:43:06;1.30;;;1.20;;
10041;SDS011;5061;49.068;12.058;2023-07-13T09:46:30;5.70;;;1.63;;
10041;SDS011;5061;49.068;12.058;2023-07-13T09:49:59;2.33;;;1.40;;
10041;SDS011;5061;49.068;12.058;2023-07-13T09:53:21;1.80;;;1.30;;
10041;SDS011;5061;49.068;12.058;2023-07-13T09:56:43;1.50;;;1.00;;
10041;SDS011;5061;49.068;12.058;2023-07-13T10:00:05;1.50;;;1.40;;
10041;SDS011;5061;49.068;12.058;2023-07-13T10:03:39;3.50;;;1.33;;
10041;SDS011;5061;49.068;12.058;2023-07-13T10:07:12;3.07;;;1.40;;
10041;SDS011;5061;49.068;12.058;2023-07-13T10:10:33;1.80;;;1.33;;
10041;SDS011;5061;49.068;12.058;2023-07-13T10:13:56;2.03;;;1.30;;
10041;SDS011;5061;49.068;12.058;2023-07-13T10:17:26;3.83;;;1.10;;
10041;SDS011;5061;49.068;12.058;2023-07-13T10:20:53;3.10;;;1.40;;
10041;SDS011;5061;49.068;12.058;2023-07-13T10:24:31;4.20;;;1.60;;
10041;SDS011;5061;49.068;12.058;2023-07-13T10:27:54;1.70;;;1.30;;
10041;SDS011;5061;49.068;12.058;2023-07-13T10:31:20;1.73;;;1.20;;
10041;SDS011;5061;49.068;12.058;2023-07-13T10:34:43;1.97;;;1.20;;
10041;SDS011;5061;49.068;12.058;2023-07-13T10:38:11;5.73;;;1.57;;
10041;SDS011;5061;49.068;12.058;2023-07-13T10:41:40;3.60;;;1.50;;
10041;SDS011;5061;49.068;12.058;2023-07-13T10:45:14;2.30;;;1.30;;
10041;SDS011;5061;49.068;12.058;2023-07-13T10:48:36;1.63;;;1.10;;
10041;SDS011;5061;49.068;12.058;2023-07-13T10:51:59;2.30;;;1.10;;
10041;SDS011;5061;49.068;12.058;2023-07-13T10:59:26;3.00;;;1.30;;
10041;SDS011;5061;49.068;12.058;2023-07-13T11:02:57;2.37;;;1.10;;
10041;SDS011;5061;49.068;12.058;2023-07-13T11:09:43;3.17;;;1.40;;
10041;SDS011;5061;49.068;12.058;2023-07-13T11:13:27;1.57;;;1.47;;
10041;SDS011;5061;49.068;12.058;2023-07-13T11:16:57;1.37;;;1.10;;
10041;SDS011;5061;49.068;12.058;2023-07-13T11:20:22;1.20;;;1.10;;
10041;SDS011;5061;49.068;12.058;2023-07-13T11:23:54;1.53;;;1.10;;
10041;SDS011;5061;49.068;12.058;2023-07-13T11:34:18;1.57;;;1.27;;
10041;SDS011;5061;49.068;12.058;2023-07-13T11:37:46;1.27;;;1.10;;
10041;SDS011;5061;49.068;12.058;2023-07-13T11:41:14;4.53;;;1.30;;
10041;SDS011;5061;49.068;12.058;2023-07-13T11:44:41;1.47;;;1.20;;
10041;SDS011;5061;49.068;12.058;2023-07-13T11:48:19;1.30;;;1.13;;
10041;SDS011;5061;49.068;12.058;2023-07-13T11:51:42;2.97;;;1.20;;
10041;SDS011;5061;49.068;12.058;2023-07-13T11:55:04;1.37;;;1.13;;
10041;SDS011;5061;49.068;12.058;2023-07-13T11:58:38;1.53;;;1.27;;
10041;SDS011;5061;49.068;12.058;2023-07-13T12:01:59;1.40;;;1.27;;
10041;SDS011;5061;49.068;12.058;2023-07-13T12:05:20;2.77;;;1.40;;
10041;SDS011;5061;49.068;12.058;2023-07-13T12:08:41;1.20;;;1.10;;
10041;SDS011;5061;49.068;12.058;2023-07-13T12:12:02;1.70;;;1.17;;
10041;SDS011;5061;49.068;12.058;2023-07-13T12:15:23;1.60;;;1.10;;
10041;SDS011;5061;49.068;12.058;2023-07-13T12:18:52;2.17;;;1.30;;
10041;SDS011;5061;49.068;12.058;2023-07-13T12:22:14;2.40;;;1.20;;
10041;SDS011;5061;49.068;12.058;2023-07-13T12:25:37;2.80;;;1.23;;
10041;SDS011;5061;49.068;12.058;2023-07-13T12:28:59;1.07;;;0.97;;
10041;SDS011;5061;49.068;12.058;2023-07-13T12:32:21;2.07;;;1.37;;
10041;SDS011;5061;49.068;12.058;2023-07-13T12:35:45;1.77;;;1.00;;
10041;SDS011;5061;49.068;12.058;2023-07-13T12:42:39;1.63;;;1.07;;
10041;SDS011;5061;49.068;12.058;2023-07-13T12:46:02;1.40;;;1.07;;
10041;SDS011;5061;49.068;12.058;2023-07-13T12:49:27;2.63;;;1.60;;
10041;SDS011;5061;49.068;12.058;2023-07-13T12:52:53;2.23;;;1.13;;
10041;SDS011;5061;49.068;12.058;2023-07-13T12:56:21;1.30;;;1.17;;
10041;SDS011;5061;49.068;12.058;2023-07-13T12:59:43;1.10;;;1.00;;
10041;SDS011;5061;49.068;12.058;2023-07-13T13:03:05;1.53;;;1.00;;
10041;SDS011;5061;49.068;12.058;2023-07-13T13:06:36;1.33;;;1.23;;
10041;SDS011;5061;49.068;12.058;2023-07-13T13:09:57;1.17;;;1.00;;
10041;SDS011;5061;49.068;12.058;2023-07-13T13:13:18;1.93;;;1.33;;
10041;SDS011;5061;49.068;12.058;2023-07-13T13:16:43;1.70;;;1.03;;
10041;SDS011;5061;49.068;12.058;2023-07-13T13:20:15;3.33;;;1.30;;
10041;SDS011;5061;49.068;12.058;2023-07-13T13:23:37;1.40;;;1.20;;
10041;SDS011;5061;49.068;12.058;2023-07-13T13:26:58;1.53;;;1.10;;
10041;SDS011;5061;49.068;12.058;2023-07-13T13:30:19;14.37;;;2.07;;
10041;SDS011;5061;49.068;12.058;2023-07-13T13:33:40;3.83;;;1.10;;
10041;SDS011;5061;49.068;12.058;2023-07-13T13:37:03;1.33;;;1.10;;
10041;SDS011;5061;49.068;12.058;2023-07-13T13:40:43;1.40;;;1.10;;
10041;SDS011;5061;49.068;12.058;2023-07-13T13:44:08;1.80;;;1.40;;
10041;SDS011;5061;49.068;12.058;2023-07-13T13:47:30;1.60;;;1.10;;
10041;SDS011;5061;49.068;12.058;2023-07-13T13:50:53;2.13;;;1.27;;
10041;SDS011;5061;49.068;12.058;2023-07-13T13:54:14;1.47;;;1.10;;
10041;SDS011;5061;49.068;12.058;2023-07-13T13:57:36;1.30;;;1.10;;
10041;SDS011;5061;49.068;12.058;2023-07-13T14:00:56;1.80;;;1.20;;
10041;SDS011;5061;49.068;12.058;2023-07-13T14:04:18;1.50;;;1.40;;
10041;SDS011;5061;49.068;12.058;2023-07-13T14:07:40;2.03;;;1.10;;
10041;SDS011;5061;49.068;12.058;2023-07-13T14:11:01;2.50;;;1.47;;
10041;SDS011;5061;49.068;12.058;2023-07-13T14:14:22;1.47;;;1.00;;
10041;SDS011;5061;49.068;12.058;2023-07-13T14:17:44;2.27;;;1.17;;
10041;SDS011;5061;49.068;12.058;2023-07-13T14:21:10;1.77;;;1.30;;
10041;SDS011;5061;49.068;12.058;2023-07-13T14:24:33;1.53;;;0.90;;
10041;SDS011;5061;49.068;12.058;2023-07-13T14:27:56;1.57;;;1.10;;
10041;SDS011;5061;49.068;12.058;2023-07-13T14:31:27;1.00;;;0.87;;
10041;SDS011;5061;49.068;12.058;2023-07-13T14:34:51;2.07;;;1.13;;
10041;SDS011;5061;49.068;12.058;2023-07-13T14:38:13;1.73;;;1.23;;
10041;SDS011;5061;49.068;12.058;2023-07-13T14:41:37;1.40;;;1.30;;
10041;SDS011;5061;49.068;12.058;2023-07-13T14:44:57;1.43;;;1.20;;
10041;SDS011;5061;49.068;12.058;2023-07-13T14:48:22;1.77;;;1.10;;
10041;SDS011;5061;49.068;12.058;2023-07-13T14:51:44;3.57;;;1.10;;
10041;SDS011;5061;49.068;12.058;2023-07-13T14:55:08;3.07;;;1.20;;
10041;SDS011;5061;49.068;12.058;2023-07-13T14:58:31;1.10;;;1.00;;
10041;SDS011;5061;49.068;12.058;2023-07-13T15:01:52;1.77;;;1.40;;
10041;SDS011;5061;49.068;12.058;2023-07-13T15:05:16;2.13;;;1.20;;
10041;SDS011;5061;49.068;12.058;2023-07-13T15:08:39;1.33;;;1.00;;
10041;SDS011;5061;49.068;12.058;2023-07-13T15:12:03;2.50;;;1.23;;
10041;SDS011;5061;49.068;12.058;2023-07-13T15:15:27;1.80;;;1.10;;
10041;SDS011;5061;49.068;12.058;2023-07-13T15:18:51;1.67;;;1.17;;
10041;SDS011;5061;49.068;12.058;2023-07-13T15:22:12;1.30;;;1.20;;
10041;SDS011;5061;49.068;12.058;2023-07-13T15:25:33;1.70;;;1.20;;
10041;SDS011;5061;49.068;12.058;2023-07-13T15:28:53;2.67;;;1.10;;
10041;SDS011;5061;49.068;12.058;2023-07-13T15:32:14;1.70;;;1.47;;
10041;SDS011;5061;49.068;12.058;2023-07-13T15:35:35;2.07;;;1.27;;
10041;SDS011;5061;49.068;12.058;2023-07-13T15:38:55;2.03;;;1.07;;
10041;SDS011;5061;49.068;12.058;2023-07-13T15:42:21;2.17;;;1.10;;
10041;SDS011;5061;49.068;12.058;2023-07-13T15:45:42;1.50;;;1.23;;
10041;SDS011;5061;49.068;12.058;2023-07-13T15:49:08;1.53;;;1.00;;
10041;SDS011;5061;49.068;12.058;2023-07-13T15:52:29;2.37;;;1.07;;
10041;SDS011;5061;49.068;12.058;2023-07-13T15:55:51;1.40;;;1.10;;
10041;SDS011;5061;49.068;12.058;2023-07-13T15:59:14;1.63;;;1.33;;
10041;SDS011;5061;49.068;12.058;2023-07-13T16:02:34;1.43;;;1.20;;
10041;SDS011;5061;49.068;12.058;2023-07-13T16:05:55;1.50;;;1.37;;
10041;SDS011;5061;49.068;12.058;2023-07-13T16:09:17;4.50;;;1.43;;
10041;SDS011;5061;49.068;12.058;2023-07-13T16:12:40;1.47;;;1.13;;
10041;SDS011;5061;49.068;12.058;2023-07-13T16:16:01;4.70;;;1.30;;
10041;SDS011;5061;49.068;12.058;2023-07-13T16:19:21;1.43;;;1.00;;
10041;SDS011;5061;49.068;12.058;2023-07-13T16:22:49;1.90;;;1.20;;
10041;SDS011;5061;49.068;12.058;2023-07-13T16:26:19;2.80;;;1.30;;
10041;SDS011;5061;49.068;12.058;2023-07-13T16:29:45;4.13;;;1.50;;
10041;SDS011;5061;49.068;12.058;2023-07-13T16:33:05;1.10;;;0.90;;
10041;SDS011;5061;49.068;12.058;2023-07-13T16:36:29;2.50;;;1.37;;
10041;SDS011;5061;49.068;12.058;2023-07-13T16:39:57;1.57;;;1.20;;
10041;SDS011;5061;49.068;12.058;2023-07-13T16:43:38;1.20;;;1.10;;
10041;SDS011;5061;49.068;12.058;2023-07-13T16:47:02;2.40;;;1.30;;
10041;SDS011;5061;49.068;12.058;2023-07-13T16:50:32;2.80;;;1.23;;
10041;SDS011;5061;49.068;12.058;2023-07-13T16:53:54;1.73;;;1.30;;
10041;SDS011;5061;49.068;12.058;2023-07-13T16:57:16;1.43;;;1.27;;
10041;SDS011;5061;49.068;12.058;2023-07-13T17:00:39;2.33;;;1.50;;
10041;SDS011;5061;49.068;12.058;2023-07-13T17:04:04;2.40;;;1.83;;
10041;SDS011;5061;49.068;12.058;2023-07-13T17:07:29;1.57;;;1.40;;
10041;SDS011;5061;49.068;12.058;2023-07-13T17:10:51;1.40;;;1.30;;
10041;SDS011;5061;49.068;12.058;2023-07-13T17:14:14;1.80;;;1.33;;
10041;SDS011;5061;49.068;12.058;2023-07-13T17:17:38;1.47;;;1.17;;
10041;SDS011;5061;49.068;12.058;2023-07-13T17:21:06;1.10;;;1.00;;
10041;SDS011;5061;49.068;12.058;2023-07-13T17:24:32;1.23;;;1.13;;
10041;SDS011;5061;49.068;12.058;2023-07-13T17:27:54;1.63;;;1.27;;
10041;SDS011;5061;49.068;12.058;2023-07-13T17:31:17;1.07;;;0.97;;
10041;SDS011;5061;49.068;12.058;2023-07-13T17:34:41;1.57;;;1.17;;
10041;SDS011;5061;49.068;12.058;2023-07-13T17:38:05;1.10;;;1.00;;
10041;SDS011;5061;49.068;12.058;2023-07-13T17:41:26;2.20;;;1.20;;
10041;SDS011;5061;49.068;12.058;2023-07-13T17:44:47;1.67;;;1.20;;
10041;SDS011;5061;49.068;12.058;2023-07-13T17:48:07;1.40;;;1.17;;
10041;SDS011;5061;49.068;12.058;2023-07-13T17:51:31;1.97;;;1.20;;
10041;SDS011;5061;49.068;12.058;2023-07-13T17:54:52;1.17;;;1.07;;
10041;SDS011;5061;49.068;12.058;2023-07-13T17:58:13;1.30;;;1.10;;
10041;SDS011;5061;49.068;12.058;2023-07-13T18:01:34;1.43;;;1.33;;
10041;SDS011;5061;49.068;12.058;2023-07-13T18:04:59;1.37;;;1.27;;
10041;SDS011;5061;49.068;12.058;2023-07-13T18:08:28;2.50;;;1.30;;
10041;SDS011;5061;49.068;12.058;2023-07-13T18:11:52;1.27;;;0.90;;
10041;SDS011;5061;49.068;12.058;2023-07-13T18:15:13;2.13;;;1.10;;
10041;SDS011;5061;49.068;12.058;2023-07-13T18:18:34;3.37;;;1.03;;
10041;SDS011;5061;49.068;12.058;2023-07-13T18:21:55;1.47;;;1.13;;
10041;SDS011;5061;49.068;12.058;2023-07-13T18:25:21;1.33;;;1.10;;
10041;SDS011;5061;49.068;12.058;2023-07-13T18:28:44;1.43;;;1.30;;
10041;SDS011;5061;49.068;12.058;2023-07-13T18:32:09;1.60;;;1.10;;
10041;SDS011;5061;49.068;12.058;2023-07-13T18:35:41;1.30;;;1.20;;
10041;SDS011;5061;49.068;12.058;2023-07-13T18:39:02;2.30;;;1.30;;
10041;SDS011;5061;49.068;12.058;2023-07-13T18:42:25;1.50;;;1.40;;
10041;SDS011;5061;49.068;12.058;2023-07-13T18:45:58;1.57;;;1.20;;
10041;SDS011;5061;49.068;12.058;2023-07-13T18:49:20;1.27;;;1.07;;
10041;SDS011;5061;49.068;12.058;2023-07-13T18:52:41;3.33;;;1.20;;
10041;SDS011;5061;49.068;12.058;2023-07-13T18:56:02;1.10;;;1.00;;
10041;SDS011;5061;49.068;12.058;2023-07-13T18:59:22;1.50;;;1.20;;
10041;SDS011;5061;49.068;12.058;2023-07-13T19:02:44;1.13;;;1.00;;
10041;SDS011;5061;49.068;12.058;2023-07-13T19:06:04;1.97;;;1.30;;
10041;SDS011;5061;49.068;12.058;2023-07-13T19:09:25;14.77;;;2.43;;
10041;SDS011;5061;49.068;12.058;2023-07-13T19:12:48;8.30;;;3.00;;
10041;SDS011;5061;49.068;12.058;2023-07-13T19:16:13;4.33;;;1.73;;
10041;SDS011;5061;49.068;12.058;2023-07-13T19:19:34;5.87;;;1.30;;
10041;SDS011;5061;49.068;12.058;2023-07-13T19:23:04;1.30;;;1.20;;
10041;SDS011;5061;49.068;12.058;2023-07-13T19:26:27;1.20;;;1.10;;
10041;SDS011;5061;49.068;12.058;2023-07-13T19:29:51;1.40;;;1.00;;
10041;SDS011;5061;49.068;12.058;2023-07-13T19:33:13;2.30;;;1.20;;
10041;SDS011;5061;49.068;12.058;2023-07-13T19:36:36;1.67;;;1.30;;
10041;SDS011;5061;49.068;12.058;2023-07-13T19:39:58;1.43;;;1.33;;
10041;SDS011;5061;49.068;12.058;2023-07-13T19:43:19;2.53;;;1.10;;
10041;SDS011;5061;49.068;12.058;2023-07-13T19:46:39;1.23;;;1.07;;
10041;SDS011;5061;49.068;12.058;2023-07-13T19:50:00;1.67;;;1.17;;
10041;SDS011;5061;49.068;12.058;2023-07-13T19:53:21;2.00;;;1.40;;
10041;SDS011;5061;49.068;12.058;2023-07-13T19:56:42;2.03;;;1.23;;
10041;SDS011;5061;49.068;12.058;2023-07-13T20:00:23;2.20;;;1.23;;
10041;SDS011;5061;49.068;12.058;2023-07-13T20:03:45;5.43;;;1.60;;
10041;SDS011;5061;49.068;12.058;2023-07-13T20:07:08;1.40;;;1.30;;
10041;SDS011;5061;49.068;12.058;2023-07-13T20:10:36;1.83;;;1.40;;
10041;SDS011;5061;49.068;12.058;2023-07-13T20:13:56;3.03;;;1.50;;
10041;SDS011;5061;49.068;12.058;2023-07-13T20:17:38;2.80;;;1.27;;
10041;SDS011;5061;49.068;12.058;2023-07-13T20:21:02;1.37;;;1.10;;
10041;SDS011;5061;49.068;12.058;2023-07-13T20:24:23;1.60;;;1.30;;
10041;SDS011;5061;49.068;12.058;2023-07-13T20:27:43;2.70;;;1.10;;
10041;SDS011;5061;49.068;12.058;2023-07-13T20:31:04;1.43;;;1.10;;
10041;SDS011;5061;49.068;12.058;2023-07-13T20:34:34;2.80;;;1.20;;
10041;SDS011;5061;49.068;12.058;2023-07-13T20:37:58;1.33;;;1.20;;
10041;SDS011;5061;49.068;12.058;2023-07-13T20:41:20;0.90;;;0.90;;
10041;SDS011;5061;49.068;12.058;2023-07-13T20:44:41;1.80;;;1.33;;
10041;SDS011;5061;49.068;12.058;2023-07-13T20:51:59;1.47;;;1.20;;
10041;SDS011;5061;49.068;12.058;2023-07-13T20:55:20;1.47;;;1.20;;
10041;SDS011;5061;49.068;12.058;2023-07-13T20:58:44;3.30;;;1.77;;
10041;SDS011;5061;49.068;12.058;2023-07-13T21:05:42;2.80;;;1.20;;
10041;SDS011;5061;49.068;12.058;2023-07-13T21:09:05;1.50;;;1.40;;